createdAt,value
2019-05-21T00:00:35.268Z,13.60
2019-05-21T00:03:10.091Z,13.60
2019-05-21T00:05:40.328Z,13.60
2019-05-21T00:08:10.634Z,13.50
2019-05-21T00:10:40.948Z,13.50
2019-05-21T00:13:16.984Z,13.50
2019-05-21T00:15:54.710Z,13.50
2019-05-21T00:18:25.243Z,13.50
2019-05-21T00:20:54.086Z,13.50
2019-05-21T00:23:22.637Z,13.40
2019-05-21T00:25:51.151Z,13.60
2019-05-21T00:28:40.544Z,13.70
2019-05-21T00:31:44.937Z,13.80
2019-05-21T00:34:49.538Z,13.90
2019-05-21T00:37:54.088Z,13.80
2019-05-21T00:40:58.871Z,13.80
2019-05-21T00:44:03.212Z,13.70
2019-05-21T00:46:29.280Z,13.80
2019-05-21T00:48:57.816Z,13.80
2019-05-21T00:51:35.129Z,13.90
2019-05-21T00:54:21.038Z,13.90
2019-05-21T01:00:11.883Z,13.80
2019-05-21T01:02:41.294Z,13.70
2019-05-21T01:05:13.358Z,13.70
2019-05-21T01:07:43.553Z,13.70
2019-05-21T01:10:12.421Z,13.70
2019-05-21T01:12:46.228Z,13.50
2019-05-21T01:59:57.330Z,12.50
2019-05-21T04:20:43.599Z,12.10
2019-05-21T04:23:50.171Z,12.10
2019-05-21T05:03:33.912Z,12.10
2019-05-21T05:12:02.826Z,12.00
2019-05-21T05:50:53.061Z,12.00
2019-05-21T05:57:07.377Z,12.10
2019-05-21T06:00:20.286Z,12.10
2019-05-21T06:06:37.219Z,12.20
2019-05-21T06:09:06.173Z,12.20
2019-05-21T06:12:25.287Z,12.10
2019-05-21T06:15:11.849Z,12.20
2019-05-21T06:21:32.861Z,12.20
2019-05-21T06:24:33.922Z,12.20
2019-05-21T06:31:20.820Z,12.20
2019-05-21T06:33:55.834Z,12.30
2019-05-21T06:36:37.108Z,12.20
2019-05-21T06:39:18.154Z,12.20
2019-05-21T07:02:48.027Z,12.40
2019-05-21T07:05:36.339Z,12.40
2019-05-21T07:08:10.452Z,12.30
2019-05-21T07:10:43.265Z,12.30
2019-05-21T07:13:15.023Z,12.30
2019-05-21T07:15:46.951Z,12.40
2019-05-21T07:18:18.958Z,12.30
2019-05-21T07:20:50.497Z,12.40
2019-05-21T07:23:22.030Z,12.30
2019-05-21T07:25:53.603Z,12.30
2019-05-21T07:28:22.804Z,12.30
2019-05-21T07:30:56.165Z,12.30
2019-05-21T07:33:34.985Z,12.30
2019-05-21T07:36:03.814Z,12.40
2019-05-21T07:38:52.875Z,12.40
2019-05-21T07:41:10.869Z,12.40
2019-05-21T07:43:39.800Z,12.40
2019-05-21T07:46:08.606Z,12.30
2019-05-21T07:48:40.631Z,12.30
2019-05-21T07:51:12.096Z,12.30
2019-05-21T07:53:41.113Z,12.30
2019-05-21T07:56:10.121Z,12.30
2019-05-21T07:58:40.505Z,12.30
2019-05-21T08:01:16.631Z,12.20
2019-05-21T08:03:45.581Z,12.20
2019-05-21T08:06:19.157Z,12.20
2019-05-21T08:08:50.813Z,12.20
2019-05-21T08:11:33.741Z,12.20
2019-05-21T08:14:04.288Z,12.30
2019-05-21T08:16:35.936Z,12.20
2019-05-21T08:19:07.259Z,12.30
2019-05-21T08:21:48.504Z,12.30
2019-05-21T08:27:00.552Z,12.30
2019-05-21T08:30:29.756Z,12.30
2019-05-21T08:32:19.857Z,12.30
2019-05-21T08:59:00.333Z,12.40
2019-05-21T09:01:35.076Z,12.40
2019-05-21T09:06:55.216Z,12.50
2019-05-21T09:09:27.553Z,12.40
2019-05-21T09:15:48.376Z,12.40
2019-05-21T09:18:22.009Z,12.40
2019-05-21T09:20:58.751Z,12.40
2019-05-21T09:23:27.226Z,12.40
2019-05-21T09:25:58.782Z,12.40
2019-05-21T09:34:48.587Z,12.50
2019-05-21T09:37:19.810Z,12.40
2019-05-21T09:39:52.320Z,12.50
2019-05-21T09:45:09.044Z,12.50
2019-05-21T09:47:39.482Z,12.50
2019-05-21T09:50:08.912Z,12.60
2019-05-21T10:02:38.555Z,12.70
2019-05-21T10:05:29.244Z,12.60
2019-05-21T10:07:59.721Z,12.60
2019-05-21T10:10:28.282Z,12.60
2019-05-21T10:15:47.782Z,12.60
2019-05-21T10:18:25.566Z,12.50
2019-05-21T10:20:55.744Z,12.50
2019-05-21T10:24:02.334Z,12.60
2019-05-21T10:26:34.601Z,12.60
2019-05-21T10:29:09.703Z,12.70
2019-05-21T10:31:38.603Z,12.70
2019-05-21T10:37:54.388Z,12.70
2019-05-21T10:48:50.989Z,12.90
2019-05-21T10:51:32.302Z,12.90
2019-05-21T10:54:18.177Z,12.90
2019-05-21T10:56:47.400Z,12.90
2019-05-21T10:59:17.214Z,12.90
2019-05-21T11:01:48.948Z,12.90
2019-05-21T11:04:45.863Z,12.90
2019-05-21T11:07:39.272Z,12.80
2019-05-21T11:10:21.700Z,12.90
2019-05-21T11:12:51.795Z,12.90
2019-05-21T11:18:43.848Z,12.80
2019-05-21T11:24:21.256Z,12.80
2019-05-21T11:30:12.426Z,12.80
2019-05-21T11:32:41.152Z,12.80
2019-05-21T11:35:10.270Z,12.90
2019-05-21T11:44:31.359Z,12.80
2019-05-21T11:47:27.606Z,12.90
2019-05-21T11:50:58.845Z,12.90
2019-05-21T12:17:08.868Z,13.60
2019-05-21T12:19:37.763Z,13.70
2019-05-21T12:22:37.913Z,13.70
2019-05-21T12:28:44.709Z,13.70
2019-05-21T12:34:23.971Z,13.60
2019-05-21T12:36:56.942Z,13.40
2019-05-21T12:49:05.181Z,13.30
2019-05-21T12:51:33.638Z,13.30
2019-05-21T12:54:02.303Z,13.30
2019-05-21T12:56:30.773Z,13.30
2019-05-21T12:59:00.932Z,13.20
2019-05-21T13:01:30.094Z,13.20
2019-05-21T13:03:58.566Z,13.20
2019-05-21T13:06:27.092Z,13.20
2019-05-21T13:08:55.660Z,13.10
2019-05-21T13:11:24.169Z,13.10
2019-05-21T13:13:52.811Z,13.10
2019-05-21T13:16:21.311Z,13.10
2019-05-21T13:18:49.882Z,13.10
2019-05-21T13:21:18.347Z,13.10
2019-05-21T13:23:46.776Z,13.10
2019-05-21T13:26:15.369Z,13.10
2019-05-21T13:28:43.924Z,13.10
2019-05-21T13:31:12.464Z,13.10
2019-05-21T13:33:40.884Z,13.00
2019-05-21T13:36:09.483Z,13.00
2019-05-21T13:38:38.121Z,13.10
2019-05-21T13:41:06.874Z,13.10
2019-05-21T13:43:35.421Z,13.10
2019-05-21T13:46:04.887Z,13.00
2019-05-21T13:48:33.394Z,13.10
2019-05-21T13:51:02.249Z,13.10
2019-05-21T13:53:30.740Z,13.10
2019-05-21T13:55:59.225Z,13.10
2019-05-21T13:58:27.749Z,13.10
2019-05-21T14:00:56.275Z,13.10
2019-05-21T14:03:25.068Z,13.00
2019-05-21T14:05:53.524Z,13.10
2019-05-21T14:08:22.014Z,13.10
2019-05-21T14:10:50.632Z,13.20
2019-05-21T14:13:19.602Z,13.30
2019-05-21T14:15:48.130Z,13.30
2019-05-21T14:18:16.845Z,13.30
2019-05-21T14:20:45.309Z,13.20
2019-05-21T14:23:13.785Z,13.20
2019-05-21T14:25:42.317Z,13.30
2019-05-21T14:28:10.786Z,13.30
2019-05-21T14:30:39.484Z,13.30
2019-05-21T14:33:08.200Z,13.30
2019-05-21T14:35:36.796Z,13.30
2019-05-21T14:38:05.499Z,13.30
2019-05-21T14:40:34.869Z,13.30
2019-05-21T14:43:03.763Z,13.30
2019-05-21T14:45:34.189Z,13.30
2019-05-21T14:48:03.272Z,13.30
2019-05-21T14:50:31.809Z,13.30
2019-05-21T14:53:00.352Z,13.20
2019-05-21T14:55:29.093Z,13.30
2019-05-21T14:57:58.971Z,13.40
2019-05-21T15:00:37.921Z,13.40
2019-05-21T15:03:06.462Z,13.50
2019-05-21T15:05:35.546Z,13.50
2019-05-21T15:08:04.956Z,13.40
2019-05-21T15:10:47.364Z,13.40
2019-05-21T15:13:06.085Z,13.30
2019-05-21T15:15:35.213Z,13.30
2019-05-21T15:18:03.736Z,13.30
2019-05-21T15:20:45.802Z,13.20
2019-05-21T15:23:14.263Z,13.30
2019-05-21T15:25:44.785Z,13.30
2019-05-21T15:28:13.252Z,13.30
2019-05-21T15:30:41.690Z,13.30
2019-05-21T15:33:10.151Z,13.20
2019-05-21T15:35:38.594Z,13.20
2019-05-21T15:38:07.119Z,13.20
2019-05-21T15:40:35.726Z,13.20
2019-05-21T15:43:04.406Z,13.20
2019-05-21T15:45:32.881Z,13.20
2019-05-21T15:48:01.674Z,13.20
2019-05-21T15:50:30.329Z,13.20
2019-05-21T15:52:58.830Z,13.20
2019-05-21T15:55:27.290Z,13.20
2019-05-21T15:57:55.886Z,13.20
2019-05-21T16:00:24.895Z,13.30
2019-05-21T16:02:53.351Z,13.30
2019-05-21T16:05:21.932Z,13.40
2019-05-21T16:07:50.371Z,13.40
2019-05-21T16:10:18.995Z,13.40
2019-05-21T16:12:47.434Z,13.50
2019-05-21T16:15:15.900Z,13.50
2019-05-21T16:17:44.348Z,13.60
2019-05-21T16:20:13.438Z,13.60
2019-05-21T16:22:41.921Z,13.50
2019-05-21T16:25:10.629Z,13.50
2019-05-21T16:27:39.133Z,13.50
2019-05-21T16:30:08.312Z,13.50
2019-05-21T16:32:36.920Z,13.50
2019-05-21T16:35:07.425Z,13.50
2019-05-21T16:37:36.204Z,13.60
2019-05-21T16:40:07.004Z,13.60
2019-05-21T16:42:35.578Z,13.60
2019-05-21T16:45:06.674Z,13.60
2019-05-21T16:47:44.472Z,13.60
2019-05-21T16:50:07.367Z,13.50
2019-05-21T16:52:36.097Z,13.50
2019-05-21T16:55:06.393Z,13.50
2019-05-21T16:57:34.872Z,13.50
2019-05-21T17:00:05.334Z,13.50
2019-05-21T17:02:33.881Z,13.50
2019-05-21T17:05:02.789Z,13.50
2019-05-21T17:07:31.336Z,13.40
2019-05-21T17:09:59.786Z,13.40
2019-05-21T17:12:28.275Z,13.40
2019-05-21T17:14:57.043Z,13.50
2019-05-21T17:17:25.656Z,13.40
2019-05-21T17:19:54.193Z,13.50
2019-05-21T17:22:22.705Z,13.40
2019-05-21T17:24:51.501Z,13.50
2019-05-21T17:27:21.645Z,13.50
2019-05-21T17:29:50.137Z,13.50
2019-05-21T17:32:18.664Z,13.50
2019-05-21T17:34:47.256Z,13.50
2019-05-21T17:37:16.080Z,13.50
2019-05-21T17:39:44.605Z,13.60
2019-05-21T17:42:15.822Z,13.60
2019-05-21T17:44:43.527Z,13.60
2019-05-21T17:47:12.063Z,13.60
2019-05-21T17:49:40.640Z,13.60
2019-05-21T17:52:09.161Z,13.50
2019-05-21T17:54:37.715Z,13.40
2019-05-21T17:57:06.218Z,13.40
2019-05-21T17:59:34.664Z,13.30
2019-05-21T18:02:04.820Z,13.30
2019-05-21T18:04:33.761Z,13.30
2019-05-21T18:07:03.178Z,13.30
2019-05-21T18:09:32.883Z,13.20
2019-05-21T18:12:01.975Z,13.20
2019-05-21T18:14:31.045Z,13.20
2019-05-21T18:16:59.612Z,13.10
2019-05-21T18:19:28.450Z,13.20
2019-05-21T18:21:57.036Z,13.10
2019-05-21T18:24:25.675Z,13.10
2019-05-21T18:26:54.277Z,13.10
2019-05-21T18:29:22.805Z,13.10
2019-05-21T18:31:51.342Z,13.10
2019-05-21T18:34:19.995Z,13.10
2019-05-21T18:36:48.515Z,13.10
2019-05-21T18:39:17.601Z,13.10
2019-05-21T18:41:46.048Z,13.10
2019-05-21T18:44:14.516Z,13.10
2019-05-21T18:46:43.096Z,13.10
2019-05-21T18:49:11.633Z,13.10
2019-05-21T18:51:40.102Z,13.10
2019-05-21T18:54:08.620Z,13.00
2019-05-21T18:56:37.100Z,13.00
2019-05-21T18:59:05.784Z,13.00
2019-05-21T19:01:34.317Z,13.00
2019-05-21T19:04:02.823Z,13.00
2019-05-21T19:06:31.337Z,13.10
2019-05-21T19:08:59.788Z,13.00
2019-05-21T19:11:28.366Z,13.00
2019-05-21T19:13:57.082Z,13.00
2019-05-21T19:16:25.587Z,13.10
2019-05-21T19:18:54.041Z,13.10
2019-05-21T19:21:22.480Z,13.20
2019-05-21T19:23:51.037Z,13.10
2019-05-21T19:26:19.512Z,13.20
2019-05-21T19:28:48.008Z,13.20
2019-05-21T19:31:16.538Z,13.10
2019-05-21T19:33:45.072Z,13.10
2019-05-21T19:36:13.533Z,13.10
2019-05-21T19:38:41.965Z,13.10
2019-05-21T19:41:10.791Z,13.10
2019-05-21T19:43:39.588Z,13.10
2019-05-21T19:46:08.099Z,13.10
2019-05-21T19:48:36.556Z,13.10
2019-05-21T19:51:05.068Z,13.10
2019-05-21T19:53:33.572Z,13.10
2019-05-21T19:56:02.239Z,13.10
2019-05-21T19:58:30.906Z,13.10
2019-05-21T20:00:59.583Z,13.20
2019-05-21T20:03:28.216Z,13.20
2019-05-21T20:05:58.525Z,13.20
2019-05-21T20:08:27.036Z,13.20
2019-05-21T20:10:55.558Z,13.20
2019-05-21T20:13:32.094Z,13.20
2019-05-21T20:15:54.897Z,13.20
2019-05-21T20:18:23.949Z,13.20
2019-05-21T20:20:53.048Z,13.20
2019-05-21T20:23:21.955Z,13.20
2019-05-21T20:25:56.666Z,13.20
2019-05-21T20:28:21.915Z,13.20
2019-05-21T20:30:50.466Z,13.20
2019-05-21T20:33:18.950Z,13.30
2019-05-21T20:35:48.528Z,13.20
2019-05-21T20:38:18.169Z,13.20
2019-05-21T20:40:47.301Z,13.20
2019-05-21T20:43:15.957Z,13.30
2019-05-21T20:45:46.314Z,13.30
2019-05-21T20:48:16.210Z,13.30
2019-05-21T20:50:45.415Z,13.40
2019-05-21T20:53:15.321Z,13.30
2019-05-21T20:55:44.126Z,13.30
2019-05-21T20:58:12.843Z,13.30
2019-05-21T21:00:48.803Z,13.20
2019-05-21T21:03:17.528Z,13.20
2019-05-21T21:05:45.980Z,13.20
2019-05-21T21:08:14.720Z,13.10
2019-05-21T21:10:43.181Z,13.10
2019-05-21T21:13:13.376Z,13.00
2019-05-21T21:15:45.041Z,13.00
2019-05-21T21:18:13.680Z,13.00
2019-05-21T21:20:42.336Z,13.00
2019-05-21T21:23:10.860Z,13.10
2019-05-21T21:25:39.589Z,13.10
2019-05-21T21:28:08.385Z,13.00
2019-05-21T21:30:38.932Z,13.00
2019-05-21T21:33:08.510Z,13.00
2019-05-21T21:35:37.576Z,13.00
2019-05-21T21:38:07.683Z,13.00
2019-05-21T21:40:36.137Z,13.00
2019-05-21T21:43:07.933Z,13.00
2019-05-21T21:45:35.218Z,13.00
2019-05-21T21:48:04.486Z,13.00
2019-05-21T21:50:33.917Z,12.90
2019-05-21T21:53:02.505Z,13.00
2019-05-21T21:55:32.068Z,12.90
2019-05-21T21:58:00.728Z,13.00
2019-05-21T22:01:00.680Z,12.90
2019-05-21T22:03:30.779Z,12.90
2019-05-21T22:06:01.433Z,13.00
2019-05-21T22:08:31.254Z,13.00
2019-05-21T22:11:00.228Z,12.90
2019-05-21T22:13:28.896Z,12.90
2019-05-21T22:15:58.195Z,12.90
2019-05-21T22:18:27.387Z,12.90
2019-05-21T22:20:56.300Z,12.90
2019-05-21T22:23:25.089Z,12.90
2019-05-21T22:25:53.872Z,12.90
2019-05-21T22:28:23.050Z,12.90
2019-05-21T22:30:51.847Z,12.80
2019-05-21T22:33:20.857Z,12.80
2019-05-21T22:35:49.466Z,12.80
2019-05-21T22:38:17.948Z,12.80
2019-05-21T22:40:46.406Z,12.80
2019-05-21T22:43:14.899Z,12.80
2019-05-21T22:45:43.431Z,12.80
2019-05-21T22:48:12.220Z,12.80
2019-05-21T22:50:40.750Z,12.80
2019-05-21T22:53:09.440Z,12.80
2019-05-21T22:55:38.176Z,12.80
2019-05-21T22:58:06.884Z,12.80
2019-05-21T23:00:35.946Z,12.80
2019-05-21T23:03:04.895Z,12.80
2019-05-21T23:05:33.566Z,12.80
2019-05-21T23:08:02.598Z,12.80
2019-05-21T23:10:31.447Z,12.80
2019-05-21T23:13:00.663Z,12.80
2019-05-21T23:15:29.186Z,12.80
2019-05-21T23:17:58.115Z,12.80
2019-05-21T23:20:27.753Z,12.80
2019-05-21T23:22:59.186Z,12.70
2019-05-21T23:25:28.459Z,12.60
2019-05-21T23:27:57.060Z,12.60
2019-05-21T23:30:26.132Z,12.60
2019-05-21T23:32:55.428Z,12.60
2019-05-21T23:35:24.256Z,12.50
2019-05-21T23:37:53.371Z,12.50
2019-05-21T23:40:22.151Z,12.50
2019-05-21T23:42:50.814Z,12.60
2019-05-21T23:45:19.524Z,12.50
2019-05-21T23:47:48.428Z,12.60
2019-05-21T23:50:18.161Z,12.50
2019-05-21T23:52:47.064Z,12.50
2019-05-21T23:55:15.618Z,12.50
2019-05-21T23:57:44.799Z,12.40
